Snel-info
Kleurcode:
Groen
Er mag gevlogen worden.
Laatste update: 17/11/2017
Kleurcode informatie

Grasmaaien:

Geen maaibeurten gepland.

Volgende vliegdagen:

  • ma 25 december : Kerstmis
  • di 26 december : 2e Kerstdag
  • wo 27 december : Brugdag
Alle extra vliegdagen

Weersituatie op PMF:

097_14-apr-2013_33_Chris.jpg

Huidige weersituatie

Huidig weerbeeld in Kleine Brogel, Belgium
Huidige wind in Kleine Brogel, Belgium

Dit is het bericht voor Kleine Brogel, Belgium en werd 28 minuten geleden gemaakt.
De wind waaide met een snelheid van 9.8 meter per seconde (35.2 km/h) met rukwinden tot 15.9 meter per seconde (57.4 km/h) uit het zuidwesten (220°).
De temperatuur was 15 °C. De atmosferische druk was 1001 hPa. De relative luchtvochtigheid was 62.9%.
Het was licht bewolkt op een hoogte van 914 meter, half bewolkt op een hoogte van 1524 meter, en zwaar bewolkt op een hoogte van 3048 meter. Het algemene zicht was meer dan 10 kilometer.

De onbewerkte METAR gegevens waarop dit bericht is gebaseerd zijn:
EBBL 231055Z 22019G31KT 9999 FEW030 SCT050 BKN100 15/08 Q1001 BLU BLU BECMG WHT


Opmerking:
De wind blijkt op PMF meestal iets krachtiger te waaien dan op Kleine Brogel. De windrichting klopt dan weer wel.




KMI

De weersvoorspellingen van het KMI vind je via deze link.


Buienradar

Op www.buienradar.nl kun je zelf zien waar het nu en de komende uren regent.